Terminal Aerodrome Forecast
Issued by NWS

Home | Current Version | Previous Version | Text Only | Print | Product List | Glossary On
Versions: 1 2 3 4 5 6 7 8 9 10 11 12 13 14 15 16 17 18 19 20 21 22 23 24 25 26
000
FTUS44 KBMX 290640 AAA
TAFMGM
TAF AMD
KMGM 290640Z 2907/3006 00000KT 1 1/2SM BR BKN004
      TEMPO 2908/2912 1/2SM FG OVC002
     FM291300 VRB03KT 4SM BR BKN010
     FM291500 15005KT P6SM BKN100
     FM291900 16005KT P6SM VCTS BKN050CB=

USA.gov is the U.S. government's official web portal to all federal, state and local government web resources and services.